Time;durP1;ratioP1;P1;durP2;ratioP2;P2;SDS_P1;SDS_P2;PMS_P1;PMS_P2;Temp;Humidity;BMP_temperature;BMP_pressure;BME280_temperature;BME280_humidity;BME280_pressure;Samples;Min_cycle;Max_cycle;Signal;HPM_P1;HPM_P2
2021/05/07 00:01:19;;;;;;;5.82;4.07;;;7.20;99.90;;;;;;5053433;28;20045;-76
2021/05/07 00:03:45;;;;;;;8.18;3.97;;;7.20;99.90;;;;;;5068669;28;20033;-76
2021/05/07 00:06:12;;;;;;;5.60;4.03;;;7.30;99.90;;;;;;5053056;28;20044;-74
2021/05/07 00:08:40;;;;;;;4.95;4.07;;;7.30;99.90;;;;;;5051406;28;20044;-78
2021/05/07 00:11:15;;;;;;;7.75;3.85;;;7.30;99.90;;;;;;5067606;28;20363;-77
2021/05/07 00:13:43;;;;;;;4.55;3.20;;;7.20;99.90;;;;;;5069675;28;20028;-77
2021/05/07 00:16:09;;;;;;;4.57;2.80;;;7.20;99.90;;;;;;5056310;28;20041;-77
2021/05/07 00:18:37;;;;;;;5.10;3.88;;;7.30;99.90;;;;;;5057063;28;20028;-77
2021/05/07 00:21:08;;;;;;;5.85;3.45;;;7.30;99.90;;;;;;5070851;28;20401;-77
2021/05/07 00:23:35;;;;;;;6.88;4.57;;;7.20;99.90;;;;;;5052334;28;20048;-76
2021/05/07 00:26:02;;;;;;;5.03;4.18;;;7.20;99.90;;;;;;5062614;28;20492;-77
2021/05/07 00:28:28;;;;;;;6.25;4.78;;;7.20;99.90;;;;;;5066626;28;20373;-77
2021/05/07 00:30:54;;;;;;;6.53;4.40;;;7.20;99.90;;;;;;5054305;28;20048;-77
2021/05/07 00:33:21;;;;;;;5.50;4.50;;;7.30;99.90;;;;;;5052565;28;20052;-77
2021/05/07 00:35:48;;;;;;;5.80;4.63;;;7.20;99.90;;;;;;5060334;28;20033;-75
2021/05/07 00:38:14;;;;;;;4.97;3.75;;;7.30;99.90;;;;;;5057944;28;20028;-75
2021/05/07 00:40:42;;;;;;;6.22;4.05;;;7.30;99.90;;;;;;5052566;28;20044;-76
2021/05/07 00:43:08;;;;;;;6.18;4.55;;;7.30;99.90;;;;;;5052769;28;20036;-77
2021/05/07 00:45:35;;;;;;;6.28;4.60;;;7.30;99.90;;;;;;5052102;28;20047;-76
2021/05/07 00:48:11;;;;;;;5.85;4.72;;;7.30;99.90;;;;;;5070346;28;20056;-76
2021/05/07 00:50:39;;;;;;;7.70;4.95;;;7.20;99.90;;;;;;5051080;28;20037;-76
2021/05/07 00:53:06;;;;;;;6.80;4.78;;;7.20;99.90;;;;;;5050348;28;20041;-77
2021/05/07 00:55:36;;;;;;;6.93;5.22;;;7.10;99.90;;;;;;5052955;28;20048;-77
2021/05/07 00:58:05;;;;;;;6.10;5.03;;;7.10;99.90;;;;;;5058161;28;20051;-77
2021/05/07 01:00:33;;;;;;;7.65;5.25;;;7.10;99.90;;;;;;5051050;28;20043;-77
2021/05/07 01:03:02;;;;;;;5.30;4.57;;;7.10;99.90;;;;;;5051308;28;20473;-77
2021/05/07 01:05:29;;;;;;;5.75;4.68;;;7.10;99.90;;;;;;5051000;28;20044;-77
2021/05/07 01:07:56;;;;;;;5.65;4.50;;;7.10;99.90;;;;;;5051970;28;20052;-77
2021/05/07 01:10:24;;;;;;;6.18;4.72;;;7.00;99.90;;;;;;5063550;28;20397;-77
2021/05/07 01:12:51;;;;;;;5.82;3.97;;;7.00;99.90;;;;;;5062206;28;20037;-78
2021/05/07 01:15:24;;;;;;;5.70;4.70;;;7.10;99.90;;;;;;5051827;28;20036;-77
2021/05/07 01:17:52;;;;;;;6.13;4.32;;;7.00;99.90;;;;;;5059842;28;20040;-77
2021/05/07 01:20:21;;;;;;;6.28;5.03;;;7.00;99.90;;;;;;5058639;28;20505;-77
2021/05/07 01:22:49;;;;;;;6.35;5.20;;;7.00;99.90;;;;;;5051904;28;20045;-78
2021/05/07 01:25:19;;;;;;;5.22;4.43;;;7.00;99.90;;;;;;5051471;28;20029;-77
2021/05/07 01:27:47;;;;;;;7.38;5.35;;;7.00;99.90;;;;;;5051750;28;20050;-78
2021/05/07 01:30:19;;;;;;;5.88;4.72;;;7.00;99.90;;;;;;5051379;28;20052;-78
2021/05/07 01:32:48;;;;;;;6.53;5.00;;;6.90;99.90;;;;;;5064519;28;20060;-78
2021/05/07 01:35:23;;;;;;;7.95;5.25;;;7.00;99.90;;;;;;5051567;28;20045;-77
2021/05/07 01:37:52;;;;;;;7.25;4.47;;;7.00;99.90;;;;;;5050790;28;20347;-78
2021/05/07 01:40:27;;;;;;;6.35;4.80;;;7.00;99.90;;;;;;5051648;28;20032;-78
2021/05/07 01:42:54;;;;;;;6.75;4.55;;;7.00;99.90;;;;;;5050461;28;20151;-77
2021/05/07 01:45:23;;;;;;;8.88;5.57;;;7.10;99.90;;;;;;5049694;28;20052;-77
2021/05/07 01:47:51;;;;;;;7.70;4.63;;;7.10;99.90;;;;;;5065930;28;20052;-76
2021/05/07 01:50:20;;;;;;;7.18;5.25;;;7.10;99.90;;;;;;5051060;28;20037;-76
2021/05/07 01:52:47;;;;;;;5.50;4.35;;;7.10;99.90;;;;;;5053366;28;20045;-77
2021/05/07 01:55:16;;;;;;;6.97;5.45;;;7.00;99.90;;;;;;5054228;28;20367;-75
2021/05/07 01:57:44;;;;;;;8.60;5.45;;;7.10;99.90;;;;;;5061147;28;20056;-78
2021/05/07 02:00:14;;;;;;;6.47;5.57;;;7.10;99.90;;;;;;5069733;28;20045;-78
2021/05/07 02:02:41;;;;;;;6.68;4.88;;;7.10;99.90;;;;;;5062006;28;20037;-77
2021/05/07 02:05:14;;;;;;;8.60;4.57;;;7.10;99.90;;;;;;5066658;28;20363;-76
2021/05/07 02:07:48;;;;;;;6.25;5.00;;;7.10;99.90;;;;;;5069370;28;20048;-77
2021/05/07 02:10:23;;;;;;;7.05;5.53;;;7.10;99.90;;;;;;5051644;28;20056;-76
2021/05/07 02:12:51;;;;;;;6.53;4.93;;;7.10;99.90;;;;;;5068818;28;20055;-77
2021/05/07 02:15:19;;;;;;;6.45;4.45;;;7.10;99.90;;;;;;5052789;28;20045;-77
2021/05/07 02:17:49;;;;;;;6.90;4.82;;;7.10;99.90;;;;;;5065422;28;20052;-77
2021/05/07 02:20:17;;;;;;;6.30;4.20;;;7.10;99.90;;;;;;5056404;28;20041;-77
2021/05/07 02:22:45;;;;;;;6.75;4.13;;;7.10;99.90;;;;;;5049980;28;20033;-77
2021/05/07 02:25:13;;;;;;;5.32;3.75;;;7.10;99.90;;;;;;5051565;28;20485;-77
2021/05/07 02:27:39;;;;;;;5.70;4.05;;;7.00;99.90;;;;;;5051058;28;20585;-77
2021/05/07 02:30:09;;;;;;;5.95;4.05;;;7.00;99.90;;;;;;5051302;28;20056;-76
2021/05/07 02:32:36;;;;;;;5.57;4.22;;;7.00;99.90;;;;;;5066549;28;20041;-77
2021/05/07 02:35:04;;;;;;;6.60;4.53;;;7.00;99.90;;;;;;5059568;28;20028;-76
2021/05/07 02:37:30;;;;;;;7.40;6.07;;;7.00;99.90;;;;;;5053544;28;20049;-76
2021/05/07 02:39:57;;;;;;;5.22;4.07;;;6.90;99.90;;;;;;5070997;28;20036;-76
2021/05/07 02:42:23;;;;;;;8.02;4.38;;;7.00;99.90;;;;;;5055017;28;20397;-77
2021/05/07 02:44:50;;;;;;;6.15;4.30;;;6.90;99.90;;;;;;5069249;28;20044;-77
2021/05/07 02:47:16;;;;;;;6.95;5.07;;;6.90;99.90;;;;;;5053331;28;20489;-77
2021/05/07 02:49:44;;;;;;;6.05;4.45;;;6.90;99.90;;;;;;5068156;28;20060;-77
2021/05/07 02:52:11;;;;;;;7.00;4.63;;;6.90;99.90;;;;;;5055136;28;20049;-77
2021/05/07 02:54:37;;;;;;;6.53;4.38;;;6.80;99.90;;;;;;5070415;28;20044;-78
2021/05/07 02:57:04;;;;;;;6.07;4.90;;;6.80;99.90;;;;;;5072295;28;20501;-78
2021/05/07 02:59:30;;;;;;;7.60;5.00;;;6.80;99.90;;;;;;5077352;28;20040;-78
2021/05/07 03:01:57;;;;;;;8.13;4.78;;;6.80;99.90;;;;;;5054278;28;20492;-77
2021/05/07 03:04:23;;;;;;;7.80;4.80;;;6.80;99.90;;;;;;5054096;28;20501;-78
2021/05/07 03:06:50;;;;;;;7.63;6.00;;;6.70;99.90;;;;;;5054632;28;20458;-78
2021/05/07 03:09:17;;;;;;;6.45;4.97;;;6.70;99.90;;;;;;5054362;28;20033;-78
2021/05/07 03:11:44;;;;;;;7.65;5.60;;;6.70;99.90;;;;;;5054551;28;20382;-78
2021/05/07 03:14:11;;;;;;;6.95;5.40;;;6.70;99.90;;;;;;5053936;28;20041;-78
2021/05/07 03:16:37;;;;;;;7.50;5.55;;;6.70;99.90;;;;;;5053709;28;20048;-78
2021/05/07 03:19:04;;;;;;;7.05;5.90;;;6.70;99.90;;;;;;5060775;28;20362;-78
2021/05/07 03:21:30;;;;;;;7.25;5.40;;;6.70;99.90;;;;;;5062923;28;20049;-78
2021/05/07 03:23:57;;;;;;;7.93;6.80;;;6.80;99.90;;;;;;5054063;28;20400;-78
2021/05/07 03:26:23;;;;;;;6.53;5.63;;;6.70;99.90;;;;;;5053804;28;20033;-76
2021/05/07 03:28:50;;;;;;;7.28;5.40;;;6.70;99.90;;;;;;5054110;28;20041;-76
2021/05/07 03:31:17;;;;;;;9.40;6.07;;;6.70;99.90;;;;;;5053822;28;20392;-77
2021/05/07 03:33:47;;;;;;;8.82;6.35;;;6.70;99.90;;;;;;5072329;28;20052;-78
2021/05/07 03:36:14;;;;;;;9.35;5.95;;;6.60;99.90;;;;;;5060816;28;20041;-76
2021/05/07 03:38:40;;;;;;;6.97;5.63;;;6.60;99.90;;;;;;5061874;28;20037;-78
2021/05/07 03:41:07;;;;;;;8.65;6.38;;;6.50;99.90;;;;;;5056973;28;20047;-77
2021/05/07 03:43:33;;;;;;;10.30;6.95;;;6.50;99.90;;;;;;5058771;28;20405;-78
2021/05/07 03:45:59;;;;;;;9.35;6.88;;;6.50;99.90;;;;;;5059418;28;20049;-78
2021/05/07 03:48:26;;;;;;;8.05;6.00;;;6.60;99.90;;;;;;5053893;28;20051;-79
2021/05/07 03:50:54;;;;;;;9.55;6.82;;;6.50;99.90;;;;;;5053771;28;20072;-79
2021/05/07 03:53:21;;;;;;;8.10;6.55;;;6.50;99.90;;;;;;5054056;28;20040;-77
2021/05/07 03:55:49;;;;;;;9.60;7.65;;;6.50;99.90;;;;;;5053836;28;20028;-78
2021/05/07 03:58:15;;;;;;;9.70;6.63;;;6.50;99.90;;;;;;5053604;28;20111;-77
2021/05/07 04:00:42;;;;;;;9.30;7.43;;;6.50;99.90;;;;;;5053412;28;20482;-78
2021/05/07 04:03:08;;;;;;;8.07;6.57;;;6.50;99.90;;;;;;5060907;28;20045;-78
2021/05/07 04:05:35;;;;;;;10.43;7.13;;;6.50;99.90;;;;;;5064683;28;20052;-78
2021/05/07 04:10:35;;;;;;;8.35;6.95;;;6.40;99.90;;;;;;5052859;28;20037;-78
2021/05/07 04:15:28;;;;;;;10.18;7.53;;;6.40;99.90;;;;;;5052941;28;20040;-79
2021/05/07 04:17:54;;;;;;;10.43;7.82;;;6.40;99.90;;;;;;5062697;28;20387;-77
2021/05/07 04:20:20;;;;;;;9.43;7.30;;;6.40;99.90;;;;;;5065115;28;20032;-78
2021/05/07 04:22:46;;;;;;;10.52;7.43;;;6.50;99.90;;;;;;5052624;28;20041;-76
2021/05/07 04:25:13;;;;;;;8.68;6.85;;;6.50;99.90;;;;;;5053563;28;20051;-77
2021/05/07 04:27:39;;;;;;;9.57;6.97;;;6.50;99.90;;;;;;5058974;28;20032;-78
2021/05/07 04:30:07;;;;;;;8.57;6.85;;;6.50;99.90;;;;;;5058212;28;20045;-78
2021/05/07 04:32:34;;;;;;;9.93;6.65;;;6.50;99.90;;;;;;5057636;28;20041;-78
2021/05/07 04:35:00;;;;;;;10.25;6.78;;;6.50;99.90;;;;;;5058566;28;20044;-77
2021/05/07 04:37:27;;;;;;;8.38;6.95;;;6.50;99.90;;;;;;5060740;28;20049;-78
2021/05/07 04:39:53;;;;;;;8.63;6.80;;;6.50;99.90;;;;;;5052596;28;20021;-77
2021/05/07 04:42:19;;;;;;;10.88;6.97;;;6.60;99.90;;;;;;5065380;28;20033;-75
2021/05/07 04:44:45;;;;;;;8.85;6.90;;;6.60;99.90;;;;;;5060124;28;20386;-78
2021/05/07 04:47:11;;;;;;;7.50;6.10;;;6.50;99.90;;;;;;5052701;28;20037;-78
2021/05/07 04:49:38;;;;;;;7.25;6.30;;;6.60;99.90;;;;;;5052054;28;20051;-77
2021/05/07 04:52:05;;;;;;;7.47;5.85;;;6.60;99.90;;;;;;5070117;28;20029;-78
2021/05/07 04:54:34;;;;;;;7.85;6.55;;;6.60;99.90;;;;;;5051978;28;20060;-78
2021/05/07 04:57:01;;;;;;;8.38;6.47;;;6.60;99.90;;;;;;5065802;28;20049;-78
2021/05/07 04:59:28;;;;;;;7.97;6.47;;;6.60;99.90;;;;;;5062021;28;20474;-78
2021/05/07 05:01:54;;;;;;;9.25;5.72;;;6.60;99.90;;;;;;5062978;28;20040;-78
2021/05/07 05:04:20;;;;;;;9.77;6.40;;;6.60;99.90;;;;;;5065252;28;20040;-79
2021/05/07 05:06:46;;;;;;;9.15;7.72;;;6.60;99.90;;;;;;5059419;28;20063;-80
2021/05/07 05:09:12;;;;;;;9.98;6.90;;;6.60;99.90;;;;;;5052399;28;20029;-80
2021/05/07 05:11:39;;;;;;;9.68;6.60;;;6.60;99.90;;;;;;5052207;28;20056;-81
2021/05/07 05:14:05;;;;;;;8.30;6.75;;;6.70;99.90;;;;;;5070942;28;20037;-80
2021/05/07 05:16:31;;;;;;;10.35;7.30;;;6.70;99.90;;;;;;5061558;28;20036;-80
2021/05/07 05:18:57;;;;;;;8.73;6.93;;;6.80;99.90;;;;;;5052121;28;20029;-78
2021/05/07 05:21:24;;;;;;;9.35;7.03;;;6.80;99.90;;;;;;5051719;28;20041;-78
2021/05/07 05:23:50;;;;;;;8.52;6.85;;;7.00;99.90;;;;;;5052229;28;20402;-78
2021/05/07 05:26:16;;;;;;;9.18;6.93;;;7.30;99.90;;;;;;5050544;28;20052;-78
2021/05/07 05:28:42;;;;;;;9.63;6.85;;;7.50;99.90;;;;;;5063606;28;20032;-79
2021/05/07 05:31:09;;;;;;;9.95;7.05;;;7.70;99.90;;;;;;5063563;28;20029;-78
2021/05/07 05:33:35;;;;;;;11.93;6.65;;;7.80;99.90;;;;;;5051523;28;20398;-77
2021/05/07 05:36:02;;;;;;;7.80;6.30;;;7.90;99.90;;;;;;5052373;28;20049;-77
2021/05/07 05:38:28;;;;;;;9.27;6.03;;;8.10;99.90;;;;;;5063778;28;20067;-77
2021/05/07 05:40:54;;;;;;;9.52;7.03;;;8.60;99.90;;;;;;5052070;28;20489;-77
2021/05/07 05:43:22;;;;;;;9.07;7.03;;;9.50;99.90;;;;;;5051616;28;20390;-76
2021/05/07 05:45:50;;;;;;;9.68;6.63;;;9.40;99.90;;;;;;5062325;28;20025;-77
2021/05/07 05:48:18;;;;;;;10.23;7.88;;;9.00;99.90;;;;;;5051716;28;20044;-77
2021/05/07 05:50:47;;;;;;;9.93;7.97;;;9.60;99.90;;;;;;5051883;28;20481;-77
2021/05/07 05:53:14;;;;;;;8.02;6.43;;;10.90;96.70;;;;;;5063437;28;20040;-77
2021/05/07 05:55:41;;;;;;;7.00;5.53;;;12.30;87.80;;;;;;5058430;28;20033;-78
2021/05/07 05:58:07;;;;;;;6.25;5.03;;;13.10;78.00;;;;;;5051674;28;20505;-77
2021/05/07 06:00:34;;;;;;;7.45;5.13;;;12.70;74.30;;;;;;5061632;28;20397;-78
2021/05/07 06:03:01;;;;;;;7.50;5.38;;;10.90;76.60;;;;;;5051922;28;20056;-79
2021/05/07 06:05:27;;;;;;;8.00;5.82;;;10.00;82.50;;;;;;5051156;28;20390;-76
2021/05/07 06:07:53;;;;;;;6.72;5.47;;;9.90;82.70;;;;;;5053784;28;20028;-79
2021/05/07 06:10:21;;;;;;;9.27;6.47;;;10.00;81.70;;;;;;5055182;28;20054;-78
2021/05/07 06:12:49;;;;;;;6.32;5.32;;;10.40;83.30;;;;;;5055498;28;20032;-80
2021/05/07 06:15:19;;;;;;;7.13;4.85;;;11.10;78.00;;;;;;5055418;28;20037;-79
2021/05/07 06:17:46;;;;;;;6.50;4.80;;;11.20;76.40;;;;;;5059103;28;20040;-78
2021/05/07 06:20:14;;;;;;;5.97;4.88;;;10.90;81.40;;;;;;5056864;28;20063;-79
2021/05/07 06:22:41;;;;;;;5.90;4.70;;;11.40;73.90;;;;;;5054634;28;20029;-74
2021/05/07 06:25:13;;;;;;;9.30;5.15;;;11.10;76.80;;;;;;5054763;28;20033;-75
2021/05/07 06:27:40;;;;;;;7.05;5.45;;;10.60;74.80;;;;;;5054695;28;20040;-75
2021/05/07 06:30:08;;;;;;;8.63;5.93;;;10.70;75.30;;;;;;5055096;28;20037;-76
2021/05/07 06:32:34;;;;;;;7.28;5.75;;;11.70;74.80;;;;;;5062917;28;20049;-76
2021/05/07 06:35:01;;;;;;;7.03;6.18;;;11.90;72.20;;;;;;5055069;28;20470;-76
2021/05/07 06:37:27;;;;;;;7.20;5.82;;;11.40;68.80;;;;;;5054656;28;20044;-76
2021/05/07 06:39:54;;;;;;;6.50;5.80;;;11.20;70.40;;;;;;5064389;28;20044;-76
2021/05/07 06:42:20;;;;;;;8.75;5.90;;;10.80;71.10;;;;;;5062466;28;20512;-75
2021/05/07 06:44:46;;;;;;;7.93;5.60;;;10.50;71.20;;;;;;5062547;28;20033;-75
2021/05/07 06:47:13;;;;;;;10.02;6.45;;;11.00;73.50;;;;;;5072681;28;20044;-76
2021/05/07 06:49:44;;;;;;;7.00;5.25;;;10.80;70.20;;;;;;5066957;28;20032;-76
2021/05/07 06:52:10;;;;;;;;;;;10.10;72.60;;;;;;5062785;28;20032;-74
2021/05/07 06:54:36;;;;;;;8.07;6.18;;;10.00;73.40;;;;;;5069950;28;20273;-75
2021/05/07 06:57:03;;;;;;;6.85;6.15;;;10.50;71.80;;;;;;5056580;28;20029;-75
2021/05/07 06:59:30;;;;;;;7.47;5.90;;;10.90;69.70;;;;;;5070481;28;20044;-75
2021/05/07 07:02:00;;;;;;;9.63;6.68;;;11.20;68.70;;;;;;5054764;28;20044;-75
2021/05/07 07:04:27;;;;;;;6.45;5.85;;;11.80;68.50;;;;;;5074271;28;20036;-75
2021/05/07 07:06:54;;;;;;;9.45;6.75;;;11.90;65.70;;;;;;5060654;28;20036;-75
2021/05/07 07:09:20;;;;;;;9.23;7.00;;;11.40;67.20;;;;;;5062750;28;20029;-75
2021/05/07 07:11:47;;;;;;;9.95;7.50;;;12.10;66.70;;;;;;5054337;28;20032;-75
2021/05/07 07:14:13;;;;;;;10.75;7.32;;;10.60;68.10;;;;;;5054391;28;20501;-75
2021/05/07 07:16:40;;;;;;;15.05;8.10;;;10.70;69.00;;;;;;5054019;28;20044;-75
2021/05/07 07:19:06;;;;;;;9.38;7.57;;;10.90;69.50;;;;;;5053773;28;20040;-75
2021/05/07 07:21:32;;;;;;;10.38;8.52;;;11.80;66.70;;;;;;5053869;28;20358;-77
2021/05/07 07:23:58;;;;;;;11.13;9.43;;;12.00;65.30;;;;;;5054337;28;20374;-75
2021/05/07 07:26:25;;;;;;;16.63;10.18;;;11.10;66.90;;;;;;5056851;28;20035;-75
2021/05/07 07:28:53;;;;;;;10.90;9.65;;;10.50;69.00;;;;;;5061111;28;20048;-75
2021/05/07 07:31:21;;;;;;;11.27;10.05;;;10.20;69.90;;;;;;5053718;28;20513;-74
2021/05/07 07:33:48;;;;;;;12.70;11.15;;;9.60;71.70;;;;;;5054141;28;20379;-74
2021/05/07 07:36:15;;;;;;;13.02;10.50;;;10.80;68.30;;;;;;5070335;28;20036;-75
2021/05/07 07:38:41;;;;;;;11.55;10.35;;;11.30;65.70;;;;;;5057483;28;20049;-75
2021/05/07 07:41:07;;;;;;;12.80;11.40;;;11.50;65.30;;;;;;5063833;28;20028;-74
2021/05/07 07:43:34;;;;;;;12.77;10.25;;;11.60;62.00;;;;;;5056762;28;20040;-74
2021/05/07 07:46:00;;;;;;;13.98;9.70;;;11.20;64.10;;;;;;5069051;28;20048;-74
2021/05/07 07:48:27;;;;;;;12.80;9.80;;;10.30;65.80;;;;;;5058883;28;20056;-74
2021/05/07 07:50:53;;;;;;;9.35;8.45;;;11.20;65.10;;;;;;5064867;28;20350;-74
2021/05/07 07:53:20;;;;;;;10.82;9.05;;;10.90;62.20;;;;;;5060394;28;20047;-74
2021/05/07 07:55:47;;;;;;;12.10;8.73;;;10.30;65.20;;;;;;5059612;28;20044;-74
2021/05/07 07:58:13;;;;;;;9.52;8.48;;;10.80;65.40;;;;;;5053338;28;20037;-75
2021/05/07 08:00:40;;;;;;;9.45;8.35;;;11.50;63.80;;;;;;5052800;28;20417;-75
2021/05/07 08:03:07;;;;;;;9.23;8.00;;;11.20;62.10;;;;;;5053873;28;20039;-75
2021/05/07 08:05:33;;;;;;;13.75;9.75;;;10.80;62.60;;;;;;5052675;28;20041;-75
2021/05/07 08:08:00;;;;;;;9.73;7.80;;;10.20;66.40;;;;;;5066343;28;20045;-75
2021/05/07 08:10:26;;;;;;;10.13;7.63;;;10.00;62.80;;;;;;5058995;28;20044;-75
2021/05/07 08:12:53;;;;;;;9.90;7.80;;;9.90;64.20;;;;;;5052969;28;20041;-75
2021/05/07 08:15:22;;;;;;;7.85;6.97;;;9.80;65.50;;;;;;5053252;28;20055;-75
2021/05/07 08:17:49;;;;;;;10.02;7.00;;;9.80;63.30;;;;;;5053334;28;20485;-75
2021/05/07 08:20:17;;;;;;;8.73;7.30;;;10.50;61.80;;;;;;5069727;28;20389;-76
2021/05/07 08:22:44;;;;;;;10.98;7.63;;;10.90;61.40;;;;;;5055219;28;20036;-74
2021/05/07 08:25:12;;;;;;;9.95;7.45;;;11.40;60.70;;;;;;5066151;28;20409;-74
2021/05/07 08:27:40;;;;;;;14.88;7.90;;;11.30;60.30;;;;;;5052733;28;20056;-74
2021/05/07 08:30:08;;;;;;;7.28;6.57;;;11.90;59.60;;;;;;5054011;28;20037;-75
2021/05/07 08:32:35;;;;;;;9.23;7.25;;;12.00;57.40;;;;;;5062609;28;20049;-75
2021/05/07 08:35:02;;;;;;;8.18;6.68;;;11.30;59.10;;;;;;5052910;28;20475;-75
2021/05/07 08:37:28;;;;;;;7.30;6.05;;;11.30;60.30;;;;;;5052434;28;20041;-74
2021/05/07 08:39:55;;;;;;;6.82;5.38;;;11.80;58.00;;;;;;5053136;28;20382;-75
2021/05/07 08:42:22;;;;;;;6.30;5.32;;;11.80;56.50;;;;;;5052342;28;20033;-74
2021/05/07 08:44:49;;;;;;;7.05;5.50;;;12.40;56.30;;;;;;5052816;28;20029;-74
2021/05/07 08:47:20;;;;;;;6.60;5.78;;;11.90;57.10;;;;;;5053487;28;20044;-75
2021/05/07 08:49:48;;;;;;;7.78;6.00;;;12.90;55.70;;;;;;5060716;28;20035;-74
2021/05/07 08:52:17;;;;;;;7.47;5.55;;;12.60;54.40;;;;;;5054633;28;20044;-75
2021/05/07 08:54:43;;;;;;;5.93;5.32;;;11.90;55.40;;;;;;5052205;28;20033;-75
2021/05/07 08:57:10;;;;;;;6.38;5.25;;;11.90;55.40;;;;;;5052646;28;20381;-75
2021/05/07 08:59:36;;;;;;;9.38;6.20;;;11.90;54.90;;;;;;5052145;28;20040;-76
2021/05/07 09:02:03;;;;;;;8.77;5.85;;;14.00;51.00;;;;;;5052412;28;20033;-75
2021/05/07 09:04:30;;;;;;;6.63;5.88;;;12.90;51.80;;;;;;5066526;28;20044;-75
2021/05/07 09:06:56;;;;;;;5.93;5.13;;;12.50;52.80;;;;;;5060008;28;20049;-75
2021/05/07 09:09:30;;;;;;;7.75;6.22;;;12.00;52.30;;;;;;5050742;28;20056;-74
2021/05/07 09:11:59;;;;;;;7.28;5.72;;;12.30;53.50;;;;;;5052565;28;20029;-77
2021/05/07 09:14:27;;;;;;;6.60;5.90;;;11.80;52.90;;;;;;5052068;28;20029;-74
2021/05/07 09:16:58;;;;;;;9.48;5.55;;;11.80;52.30;;;;;;5051887;28;20029;-74
2021/05/07 09:19:30;;;;;;;7.97;6.00;;;12.00;54.10;;;;;;5051747;28;20036;-75
2021/05/07 09:21:57;;;;;;;6.80;6.07;;;12.60;52.60;;;;;;5066644;28;20044;-75
2021/05/07 09:24:34;;;;;;;8.32;5.68;;;13.10;52.50;;;;;;5051342;28;20052;-75
2021/05/07 09:27:02;;;;;;;10.77;5.93;;;13.20;53.70;;;;;;5052211;28;20401;-75
2021/05/07 09:29:31;;;;;;;7.35;5.35;;;14.50;50.60;;;;;;5051454;28;20044;-75
2021/05/07 09:32:00;;;;;;;7.35;4.70;;;13.40;48.60;;;;;;5051608;28;20048;-76
2021/05/07 09:34:33;;;;;;;9.73;5.25;;;14.60;49.20;;;;;;5051540;28;20036;-75
2021/05/07 09:36:59;;;;;;;5.60;4.68;;;15.00;47.40;;;;;;5056146;28;20028;-75
2021/05/07 09:39:27;;;;;;;9.65;5.25;;;14.10;47.60;;;;;;5069475;28;20040;-74
2021/05/07 09:41:53;;;;;;;8.57;4.88;;;13.40;48.50;;;;;;5053431;28;20040;-74
2021/05/07 09:44:23;;;;;;;5.88;4.82;;;13.40;47.60;;;;;;5056130;28;20049;-74
2021/05/07 09:46:51;;;;;;;6.63;4.80;;;13.50;49.60;;;;;;5055971;28;20390;-75
2021/05/07 09:49:31;;;;;;;6.53;4.30;;;15.00;48.40;;;;;;5055780;28;20041;-76
2021/05/07 09:51:58;;;;;;;4.85;4.22;;;14.70;47.10;;;;;;5070889;28;20028;-76
2021/05/07 09:54:25;;;;;;;5.85;4.53;;;14.90;45.90;;;;;;5059509;28;20044;-75
2021/05/07 09:56:54;;;;;;;5.50;4.53;;;14.40;46.00;;;;;;5064891;28;20033;-76
2021/05/07 09:59:21;;;;;;;6.97;3.85;;;13.00;48.90;;;;;;5069207;28;20051;-74
2021/05/07 10:01:48;;;;;;;9.18;4.05;;;12.10;49.60;;;;;;5063878;28;20040;-74
2021/05/07 10:04:16;;;;;;;8.13;5.43;;;11.50;55.70;;;;;;5062233;28;20028;-75
2021/05/07 10:06:42;;;;;;;7.28;4.30;;;11.00;59.10;;;;;;5068277;28;20029;-76
2021/05/07 10:09:10;;;;;;;8.63;4.72;;;10.70;59.30;;;;;;5056291;28;20390;-73
2021/05/07 10:11:40;;;;;;;8.70;5.28;;;10.50;56.50;;;;;;5055272;28;20033;-74
2021/05/07 10:14:10;;;;;;;7.97;5.05;;;10.40;58.10;;;;;;5071903;28;20056;-75
2021/05/07 10:16:37;;;;;;;6.38;4.78;;;10.30;62.30;;;;;;5058942;28;20028;-74
2021/05/07 10:19:11;;;;;;;8.10;4.05;;;10.30;63.00;;;;;;5054513;28;20505;-75
2021/05/07 10:21:46;;;;;;;6.00;3.75;;;10.70;59.80;;;;;;5056058;28;20036;-75
2021/05/07 10:24:17;;;;;;;7.72;4.45;;;11.50;59.70;;;;;;5055456;28;20037;-75
2021/05/07 10:26:52;;;;;;;5.07;3.63;;;12.00;58.90;;;;;;5060735;28;20488;-75
2021/05/07 10:29:29;;;;;;;5.75;4.53;;;12.20;58.90;;;;;;5069788;28;20040;-76
2021/05/07 10:31:58;;;;;;;5.97;4.30;;;12.00;55.60;;;;;;5055241;28;20068;-75
2021/05/07 10:34:26;;;;;;;6.97;4.28;;;12.00;55.80;;;;;;5054882;28;20382;-75
2021/05/07 10:36:56;;;;;;;7.70;4.13;;;12.30;54.20;;;;;;5054626;28;20049;-75
2021/05/07 10:39:27;;;;;;;5.03;3.42;;;13.10;53.60;;;;;;5064913;28;20074;-75
2021/05/07 10:41:59;;;;;;;6.80;3.20;;;13.20;50.80;;;;;;5055078;28;20037;-75
2021/05/07 10:44:27;;;;;;;6.15;2.38;;;12.50;52.20;;;;;;5069029;28;20041;-76
2021/05/07 10:47:08;;;;;;;2.75;1.65;;;10.80;56.50;;;;;;5057940;28;20035;-76
2021/05/07 10:49:40;;;;;;;4.50;2.13;;;9.90;59.20;;;;;;5065499;28;20033;-74
2021/05/07 10:52:08;;;;;;;2.65;1.67;;;9.70;60.10;;;;;;5054835;28;20026;-73
2021/05/07 10:54:39;;;;;;;2.60;1.40;;;9.60;62.50;;;;;;5055900;28;20037;-75
2021/05/07 10:57:24;;;;;;;3.97;1.15;;;9.70;58.50;;;;;;5072218;28;20028;-75
2021/05/07 10:59:56;;;;;;;3.10;1.40;;;9.90;59.20;;;;;;5057022;28;20363;-75
2021/05/07 11:02:24;;;;;;;4.07;1.98;;;10.10;59.60;;;;;;5062257;28;20032;-75
2021/05/07 11:04:51;;;;;;;4.03;2.47;;;10.50;59.70;;;;;;5053190;28;20040;-74
2021/05/07 11:07:32;;;;;;;4.10;2.50;;;11.20;56.90;;;;;;5054393;28;20052;-78
2021/05/07 11:10:00;;;;;;;5.22;2.47;;;11.70;56.10;;;;;;5054483;28;20057;-76
2021/05/07 11:12:26;;;;;;;5.10;3.10;;;12.50;55.50;;;;;;5054408;28;20477;-77
2021/05/07 11:14:53;;;;;;;3.85;2.28;;;12.60;54.80;;;;;;5054386;28;20044;-77
2021/05/07 11:17:20;;;;;;;5.03;2.72;;;12.40;54.10;;;;;;5054842;28;20049;-77
2021/05/07 11:19:49;;;;;;;6.15;3.38;;;12.00;54.30;;;;;;5054095;28;20043;-77
2021/05/07 11:22:15;;;;;;;5.85;2.70;;;11.70;56.30;;;;;;5055034;28;20052;-77
2021/05/07 11:24:43;;;;;;;5.05;2.53;;;11.40;58.40;;;;;;5054005;28;20515;-76
2021/05/07 11:27:25;;;;;;;4.90;2.50;;;11.60;58.90;;;;;;5054170;28;20040;-75
2021/05/07 11:29:59;;;;;;;8.57;2.13;;;11.40;59.30;;;;;;5054348;28;20049;-76
2021/05/07 11:32:25;;;;;;;7.70;2.65;;;11.50;59.90;;;;;;5053545;28;20056;-76
2021/05/07 11:34:56;;;;;;;7.60;2.92;;;11.50;59.70;;;;;;5053274;28;20478;-76
2021/05/07 11:37:23;;;;;;;;;;;11.60;59.40;;;;;;5054261;28;20474;-76
2021/05/07 11:40:08;;;;;;;5.63;2.70;;;11.50;58.00;;;;;;5054003;28;20354;-76
2021/05/07 11:42:36;;;;;;;6.35;2.95;;;11.70;54.70;;;;;;5053134;28;20052;-76
2021/05/07 11:45:10;;;;;;;5.45;2.97;;;11.60;56.20;;;;;;5054071;28;20045;-77
2021/05/07 11:47:39;;;;;;;4.18;2.80;;;11.70;57.00;;;;;;5071533;28;20040;-76
2021/05/07 11:50:07;;;;;;;7.78;2.58;;;11.70;56.80;;;;;;5058962;28;20052;-77
2021/05/07 11:52:38;;;;;;;3.50;2.33;;;11.50;58.90;;;;;;5073193;28;20485;-77
2021/05/07 11:55:06;;;;;;;2.47;1.98;;;11.90;57.70;;;;;;5053846;28;20029;-74
2021/05/07 11:57:33;;;;;;;3.67;2.53;;;12.30;57.10;;;;;;5063362;28;20036;-74
2021/05/07 12:00:00;;;;;;;4.15;2.80;;;12.40;57.70;;;;;;5056202;28;20045;-75
2021/05/07 12:02:31;;;;;;;5.07;2.75;;;12.50;56.80;;;;;;5063212;28;20041;-75
2021/05/07 12:04:58;;;;;;;5.05;3.30;;;12.50;56.90;;;;;;5064551;28;20025;-76
2021/05/07 12:07:33;;;;;;;8.07;3.17;;;12.20;56.60;;;;;;5061531;28;20302;-76
2021/05/07 12:10:01;;;;;;;4.35;3.13;;;12.70;57.80;;;;;;5053874;28;20040;-75
2021/05/07 12:12:28;;;;;;;3.90;3.25;;;12.70;56.80;;;;;;5070204;28;20330;-76
2021/05/07 12:15:12;;;;;;;4.53;3.00;;;12.50;57.30;;;;;;5057912;28;20029;-76
2021/05/07 12:17:46;;;;;;;3.17;2.03;;;12.80;57.20;;;;;;5053175;28;20041;-75
2021/05/07 12:20:17;;;;;;;3.58;2.00;;;12.90;54.30;;;;;;5051811;28;20482;-76
2021/05/07 12:22:45;;;;;;;2.97;2.20;;;12.60;54.10;;;;;;5052741;28;20039;-76
2021/05/07 12:25:18;;;;;;;3.15;1.58;;;13.00;54.20;;;;;;5053602;28;20045;-76
2021/05/07 12:27:46;;;;;;;3.85;2.42;;;13.40;53.90;;;;;;5063616;28;20036;-76
2021/05/07 12:30:39;;;;;;;4.15;2.08;;;12.30;57.90;;;;;;5061036;28;20041;-76
2021/05/07 12:33:11;;;;;;;4.05;2.33;;;11.50;60.20;;;;;;5052864;28;20370;-76
2021/05/07 12:35:40;;;;;;;6.03;2.63;;;11.20;58.80;;;;;;5071001;28;20043;-76
2021/05/07 12:38:33;;;;;;;3.65;2.30;;;11.20;63.70;;;;;;5063579;28;20339;-76
2021/05/07 12:41:07;;;;;;;3.03;2.33;;;11.10;66.70;;;;;;5066963;28;20024;-77
2021/05/07 12:43:45;;;;;;;3.00;1.80;;;11.40;67.50;;;;;;5066100;28;20037;-75
2021/05/07 12:46:13;;;;;;;3.17;1.90;;;12.20;64.50;;;;;;5061778;28;20028;-77
2021/05/07 12:48:40;;;;;;;2.75;1.98;;;12.80;58.50;;;;;;5061069;28;20393;-77
2021/05/07 12:51:08;;;;;;;2.53;1.80;;;13.10;53.70;;;;;;5064624;28;20362;-77
2021/05/07 12:53:37;;;;;;;2.25;1.45;;;13.50;53.60;;;;;;5063992;28;20036;-77
2021/05/07 12:56:04;;;;;;;1.50;1.30;;;13.60;52.00;;;;;;5053594;28;20041;-78
2021/05/07 12:58:31;;;;;;;1.80;1.38;;;12.70;50.20;;;;;;5052419;28;20033;-78
2021/05/07 13:00:57;;;;;;;4.10;1.23;;;12.40;51.80;;;;;;5052856;28;20037;-78